createdAt,value
2023-04-25T00:01:05.971Z,1.48
2023-04-25T00:03:34.447Z,1.33
2023-04-25T00:06:03.469Z,1.38
2023-04-25T00:08:31.860Z,1.23
2023-04-25T00:11:01.509Z,1.42
2023-04-25T00:13:29.677Z,1.17
2023-04-25T00:15:59.154Z,1.00
2023-04-25T00:18:29.685Z,0.60
2023-04-25T00:20:58.193Z,1.40
2023-04-25T00:23:26.364Z,0.88
2023-04-25T00:25:54.488Z,0.90
2023-04-25T00:28:23.842Z,1.02
2023-04-25T00:30:52.046Z,0.45
2023-04-25T00:33:20.168Z,0.55
2023-04-25T00:35:48.276Z,1.13
2023-04-25T00:38:16.776Z,0.73
2023-04-25T00:40:45.851Z,0.77
2023-04-25T00:43:14.079Z,0.63
2023-04-25T00:45:45.740Z,1.27
2023-04-25T00:48:15.918Z,0.70
2023-04-25T00:50:44.732Z,1.10
2023-04-25T00:53:12.948Z,0.85
2023-04-25T00:55:41.221Z,0.73
2023-04-25T00:58:09.354Z,0.80
2023-04-25T01:00:38.478Z,0.80
2023-04-25T01:03:08.208Z,0.73
2023-04-25T01:05:36.460Z,1.10
2023-04-25T01:08:04.833Z,0.95
2023-04-25T01:10:32.929Z,0.75
2023-04-25T01:13:01.304Z,1.33
2023-04-25T01:15:29.789Z,1.35
2023-04-25T01:17:59.112Z,0.68
2023-04-25T01:20:29.400Z,1.02
2023-04-25T01:23:00.097Z,1.30
2023-04-25T01:25:28.450Z,1.10
2023-04-25T01:27:57.120Z,1.35
2023-04-25T01:30:26.000Z,1.15
2023-04-25T01:32:56.278Z,1.02
2023-04-25T01:35:26.034Z,1.27
2023-04-25T01:37:56.604Z,1.30
2023-04-25T01:40:26.786Z,0.77
2023-04-25T01:42:55.690Z,1.50
2023-04-25T01:45:23.882Z,1.95
2023-04-25T01:47:53.219Z,1.10
2023-04-25T01:50:21.952Z,1.70
2023-04-25T01:52:51.252Z,1.40
2023-04-25T01:55:20.841Z,1.33
2023-04-25T01:58:00.512Z,1.38
2023-04-25T02:00:44.014Z,1.15
2023-04-25T02:03:12.560Z,1.20
2023-04-25T02:05:41.815Z,0.95
2023-04-25T02:08:12.971Z,1.30
2023-04-25T02:10:41.206Z,0.82
2023-04-25T02:13:18.385Z,1.30
2023-04-25T02:16:05.466Z,1.00
2023-04-25T02:18:34.082Z,0.95
2023-04-25T02:21:03.903Z,1.10
2023-04-25T02:23:32.244Z,1.60
2023-04-25T02:26:01.882Z,1.25
2023-04-25T02:28:31.417Z,1.67
2023-04-25T02:30:59.548Z,1.45
2023-04-25T02:33:27.707Z,1.98
2023-04-25T02:35:55.813Z,1.23
2023-04-25T02:38:24.066Z,1.40
2023-04-25T02:40:52.074Z,1.00
2023-04-25T02:43:20.205Z,1.42
2023-04-25T02:45:49.595Z,1.40
2023-04-25T02:48:17.854Z,1.52
2023-04-25T02:50:46.177Z,1.60
2023-04-25T02:53:14.456Z,1.35
2023-04-25T02:55:48.424Z,1.08
2023-04-25T02:58:16.835Z,0.98
2023-04-25T03:00:50.425Z,0.98
2023-04-25T03:03:22.752Z,0.85
2023-04-25T03:05:52.528Z,0.98
2023-04-25T03:08:26.389Z,0.90
2023-04-25T03:10:56.708Z,1.13
2023-04-25T03:13:26.770Z,1.48
2023-04-25T03:15:56.290Z,1.00
2023-04-25T03:18:24.401Z,1.00
2023-04-25T03:20:52.459Z,0.70
2023-04-25T03:23:20.632Z,0.82
2023-04-25T03:25:48.737Z,1.13
2023-04-25T03:28:17.053Z,1.02
2023-04-25T03:30:45.406Z,1.30
2023-04-25T03:33:14.961Z,0.70
2023-04-25T03:35:43.657Z,0.90
2023-04-25T03:38:12.554Z,1.00
2023-04-25T03:40:41.973Z,0.93
2023-04-25T03:43:20.915Z,1.40
2023-04-25T03:45:56.102Z,1.27
2023-04-25T03:48:27.136Z,0.95
2023-04-25T03:50:55.953Z,1.05
2023-04-25T03:53:24.561Z,1.15
2023-04-25T03:56:11.673Z,1.02
2023-04-25T03:58:41.244Z,1.30
2023-04-25T04:01:09.937Z,1.00
2023-04-25T04:03:41.755Z,1.35
2023-04-25T04:06:11.790Z,0.98
2023-04-25T04:08:43.532Z,1.23
2023-04-25T04:11:12.872Z,1.02
2023-04-25T04:13:41.023Z,0.80
2023-04-25T04:16:09.997Z,1.25
2023-04-25T04:18:38.334Z,1.25
2023-04-25T04:21:08.004Z,1.35
2023-04-25T04:23:39.908Z,1.00
2023-04-25T04:26:10.113Z,1.10
2023-04-25T04:28:46.233Z,1.52
2023-04-25T04:31:22.548Z,0.95
2023-04-25T04:33:51.099Z,1.15
2023-04-25T04:36:23.004Z,1.55
2023-04-25T04:38:53.782Z,1.10
2023-04-25T04:41:34.393Z,1.50
2023-04-25T04:44:27.951Z,0.73
2023-04-25T04:47:15.142Z,1.33
2023-04-25T04:50:10.415Z,1.50
2023-04-25T04:52:58.413Z,0.88
2023-04-25T04:55:42.150Z,0.93
2023-04-25T04:58:23.844Z,1.23
2023-04-25T05:01:03.898Z,1.55
2023-04-25T05:03:40.211Z,1.02
2023-04-25T05:06:15.154Z,0.50
2023-04-25T05:08:55.061Z,1.30
2023-04-25T05:11:41.434Z,1.38
2023-04-25T05:14:27.627Z,0.85
2023-04-25T05:17:09.551Z,1.10
2023-04-25T05:19:47.953Z,0.90
2023-04-25T05:22:34.642Z,1.00
2023-04-25T05:25:22.422Z,1.27
2023-04-25T05:28:11.355Z,0.98
2023-04-25T05:30:40.378Z,1.08
2023-04-25T05:33:18.930Z,0.90
2023-04-25T05:35:48.052Z,0.65
2023-04-25T05:38:16.542Z,0.95
2023-04-25T05:41:04.550Z,0.52
2023-04-25T05:43:57.224Z,0.73
2023-04-25T05:46:32.146Z,0.77
2023-04-25T05:49:19.800Z,0.73
2023-04-25T05:52:06.689Z,0.68
2023-04-25T05:54:35.748Z,1.17
2023-04-25T05:57:05.712Z,0.50
2023-04-25T05:59:34.189Z,1.02
2023-04-25T06:02:03.071Z,1.00
2023-04-25T06:04:36.650Z,0.93
2023-04-25T06:07:05.035Z,1.08
2023-04-25T06:09:34.314Z,0.93
2023-04-25T06:12:02.807Z,0.52
2023-04-25T06:14:33.098Z,0.85
2023-04-25T06:17:07.269Z,0.55
2023-04-25T06:19:35.476Z,0.88
2023-04-25T06:22:04.208Z,0.55
2023-04-25T06:24:34.098Z,0.80
2023-04-25T06:27:05.303Z,0.60
2023-04-25T06:29:34.900Z,0.75
2023-04-25T06:32:03.100Z,0.70
2023-04-25T06:34:31.849Z,0.90
2023-04-25T06:37:00.988Z,1.02
2023-04-25T06:39:29.407Z,1.17
2023-04-25T06:41:57.669Z,1.05
2023-04-25T06:44:47.109Z,0.52
2023-04-25T06:47:15.837Z,0.68
2023-04-25T06:49:45.130Z,0.90
2023-04-25T06:52:17.306Z,1.02
2023-04-25T06:54:50.856Z,0.73
2023-04-25T06:57:30.008Z,0.98
2023-04-25T07:00:10.749Z,0.73
2023-04-25T07:02:39.795Z,0.98
2023-04-25T07:05:09.300Z,0.88
2023-04-25T07:07:37.513Z,0.52
2023-04-25T07:10:06.456Z,0.75
2023-04-25T07:12:34.714Z,0.60
2023-04-25T07:15:06.919Z,0.88
2023-04-25T07:17:37.037Z,1.52
2023-04-25T07:20:06.891Z,1.13
2023-04-25T07:22:35.233Z,0.60
2023-04-25T07:25:05.476Z,0.88
2023-04-25T07:27:34.123Z,1.45
2023-04-25T07:30:13.188Z,1.48
2023-04-25T07:32:42.883Z,1.83
2023-04-25T07:35:11.381Z,1.60
2023-04-25T07:37:39.715Z,1.45
2023-04-25T07:40:13.332Z,1.50
2023-04-25T07:42:47.825Z,1.10
2023-04-25T07:45:20.325Z,1.13
2023-04-25T07:47:51.191Z,0.95
2023-04-25T07:50:19.763Z,0.80
2023-04-25T07:52:49.013Z,0.70
2023-04-25T07:55:24.982Z,1.17
2023-04-25T07:58:03.040Z,1.45
2023-04-25T08:00:33.473Z,0.70
2023-04-25T08:03:22.750Z,0.93
2023-04-25T08:05:52.313Z,0.80
2023-04-25T08:08:21.302Z,0.82
2023-04-25T08:10:50.242Z,1.00
2023-04-25T08:13:19.107Z,0.77
2023-04-25T08:15:47.806Z,1.20
2023-04-25T08:18:17.563Z,0.88
2023-04-25T08:20:50.692Z,1.38
2023-04-25T08:23:19.308Z,0.60
2023-04-25T08:25:55.916Z,0.93
2023-04-25T08:28:28.394Z,0.60
2023-04-25T08:30:57.926Z,0.90
2023-04-25T08:33:28.392Z,0.52
2023-04-25T08:36:11.816Z,0.80
2023-04-25T08:38:40.072Z,1.40
2023-04-25T08:41:13.932Z,0.82
2023-04-25T08:43:44.967Z,0.50
2023-04-25T08:46:15.318Z,0.75
2023-04-25T08:49:02.260Z,0.88
2023-04-25T08:51:34.514Z,1.13
2023-04-25T08:54:30.930Z,0.40
2023-04-25T08:57:05.446Z,1.20
2023-04-25T08:59:36.608Z,0.60
2023-04-25T09:02:07.870Z,0.60
2023-04-25T09:04:36.359Z,0.77
2023-04-25T09:07:06.095Z,1.40
2023-04-25T09:09:34.358Z,0.40
2023-04-25T09:12:02.982Z,0.77
2023-04-25T09:14:31.210Z,0.80
2023-04-25T09:17:08.948Z,1.00
2023-04-25T09:19:45.244Z,0.80
2023-04-25T09:22:23.814Z,1.30
2023-04-25T09:24:52.309Z,0.60
2023-04-25T09:27:24.139Z,0.77
2023-04-25T09:30:01.639Z,0.88
2023-04-25T09:32:39.697Z,0.95
2023-04-25T09:35:09.277Z,1.20
2023-04-25T09:37:39.177Z,0.95
2023-04-25T09:40:09.122Z,0.90
2023-04-25T09:42:50.609Z,0.63
2023-04-25T09:45:20.226Z,0.57
2023-04-25T09:47:48.375Z,0.38
2023-04-25T09:50:25.628Z,0.88
2023-04-25T09:53:08.098Z,0.63
2023-04-25T09:55:54.710Z,0.63
2023-04-25T09:58:23.648Z,1.63
2023-04-25T10:00:52.748Z,0.50
2023-04-25T10:03:35.101Z,0.52
2023-04-25T10:06:24.930Z,1.35
2023-04-25T10:08:56.875Z,0.55
2023-04-25T10:11:28.293Z,0.57
2023-04-25T10:13:57.837Z,0.57
2023-04-25T10:16:27.223Z,0.95
2023-04-25T10:18:55.549Z,0.73
2023-04-25T10:21:24.030Z,0.68
2023-04-25T10:23:52.805Z,0.65
2023-04-25T10:26:23.064Z,1.08
2023-04-25T10:29:11.529Z,1.10
2023-04-25T10:31:48.016Z,0.60
2023-04-25T10:34:17.670Z,0.63
2023-04-25T10:36:53.127Z,0.85
2023-04-25T10:39:25.168Z,0.93
2023-04-25T10:41:59.561Z,0.60
2023-04-25T10:44:29.703Z,0.75
2023-04-25T10:46:59.487Z,0.70
2023-04-25T10:49:35.461Z,1.30
2023-04-25T10:52:27.583Z,0.93
2023-04-25T10:54:57.596Z,0.93
2023-04-25T10:57:38.167Z,1.38
2023-04-25T11:00:12.881Z,0.43
2023-04-25T11:02:46.533Z,1.00
2023-04-25T11:08:03.990Z,1.00
2023-04-25T11:10:37.484Z,1.08
2023-04-25T11:13:06.969Z,1.00
2023-04-25T11:15:35.096Z,0.65
2023-04-25T11:18:04.180Z,0.85
2023-04-25T11:20:32.472Z,0.80
2023-04-25T11:23:01.761Z,0.90
2023-04-25T11:25:31.349Z,0.90
2023-04-25T11:28:02.188Z,0.60
2023-04-25T11:30:32.475Z,0.95
2023-04-25T11:33:00.946Z,0.93
2023-04-25T11:35:29.107Z,1.10
2023-04-25T11:37:57.284Z,0.80
2023-04-25T11:40:25.833Z,1.08
2023-04-25T11:42:55.372Z,1.02
2023-04-25T11:45:25.277Z,0.60
2023-04-25T11:47:54.900Z,0.70
2023-04-25T11:50:23.057Z,1.10
2023-04-25T11:52:51.427Z,0.68
2023-04-25T11:55:21.598Z,0.73
2023-04-25T11:57:51.558Z,0.70
2023-04-25T12:00:21.706Z,0.73
2023-04-25T12:02:55.275Z,0.57
2023-04-25T12:05:32.689Z,0.73
2023-04-25T12:08:13.922Z,0.57
2023-04-25T12:10:44.011Z,1.10
2023-04-25T12:13:31.011Z,0.80
2023-04-25T12:15:59.359Z,0.65
2023-04-25T12:18:29.521Z,0.60
2023-04-25T12:20:57.773Z,0.75
2023-04-25T12:23:29.662Z,0.60
2023-04-25T12:25:58.829Z,1.48
2023-04-25T12:28:28.641Z,0.63
2023-04-25T12:30:59.223Z,0.85
2023-04-25T12:33:30.013Z,0.90
2023-04-25T12:35:59.255Z,0.50
2023-04-25T12:38:28.606Z,1.27
2023-04-25T12:40:56.854Z,0.70
2023-04-25T12:43:25.227Z,1.13
2023-04-25T12:45:54.884Z,0.88
2023-04-25T12:48:23.604Z,0.93
2023-04-25T12:50:53.781Z,0.90
2023-04-25T12:53:23.751Z,0.93
2023-04-25T12:55:52.746Z,0.73
2023-04-25T12:58:21.620Z,1.27
2023-04-25T13:00:50.020Z,1.70
2023-04-25T13:03:19.126Z,0.98
2023-04-25T13:05:47.702Z,0.93
2023-04-25T13:08:17.081Z,0.90
2023-04-25T13:10:45.502Z,0.90
2023-04-25T13:13:13.652Z,1.23
2023-04-25T13:15:41.835Z,1.20
2023-04-25T13:18:10.184Z,1.33
2023-04-25T13:20:38.628Z,1.27
2023-04-25T13:23:06.814Z,1.48
2023-04-25T13:25:36.451Z,0.77
2023-04-25T13:28:04.895Z,1.10
2023-04-25T13:30:33.129Z,1.10
2023-04-25T13:33:04.444Z,0.98
2023-04-25T13:35:33.111Z,0.90
2023-04-25T13:38:01.354Z,0.80
2023-04-25T13:40:29.668Z,0.82
2023-04-25T13:42:59.080Z,0.93
2023-04-25T13:45:27.468Z,0.95
2023-04-25T13:47:55.546Z,0.88
2023-04-25T13:50:23.629Z,0.98
2023-04-25T13:52:51.837Z,1.10
2023-04-25T13:55:20.067Z,0.90
2023-04-25T13:57:48.231Z,1.33
2023-04-25T14:00:18.543Z,1.13
2023-04-25T14:02:49.303Z,0.93
2023-04-25T14:05:18.849Z,1.42
2023-04-25T14:07:47.056Z,1.25
2023-04-25T14:10:15.176Z,1.15
2023-04-25T14:12:43.259Z,1.00
2023-04-25T14:15:12.088Z,1.50
2023-04-25T14:17:41.557Z,1.08
2023-04-25T14:20:12.010Z,1.17
2023-04-25T14:22:44.007Z,1.30
2023-04-25T14:25:12.222Z,1.13
2023-04-25T14:27:40.466Z,1.15
2023-04-25T14:30:10.218Z,1.10
2023-04-25T14:32:38.377Z,1.63
2023-04-25T14:35:09.079Z,1.23
2023-04-25T14:37:37.160Z,1.25
2023-04-25T14:40:05.620Z,0.80
2023-04-25T14:42:35.199Z,1.40
2023-04-25T14:45:04.010Z,1.45
2023-04-25T14:47:32.827Z,1.83
2023-04-25T14:50:00.979Z,1.83
2023-04-25T14:52:30.741Z,1.25
2023-04-25T14:55:00.995Z,1.15
2023-04-25T14:57:29.211Z,1.20
2023-04-25T14:59:57.451Z,1.17
2023-04-25T15:02:26.900Z,1.50
2023-04-25T15:04:55.613Z,1.27
2023-04-25T15:07:23.980Z,1.35
2023-04-25T15:09:54.418Z,1.23
2023-04-25T15:12:22.660Z,1.33
2023-04-25T15:14:50.907Z,1.08
2023-04-25T15:17:19.100Z,1.17
2023-04-25T15:19:47.381Z,1.02
2023-04-25T15:22:15.698Z,1.00
2023-04-25T15:24:44.049Z,1.48
2023-04-25T15:27:14.492Z,1.25
2023-04-25T15:29:42.729Z,1.08
2023-04-25T15:32:11.447Z,1.10
2023-04-25T15:34:39.522Z,1.42
2023-04-25T15:37:07.620Z,1.40
2023-04-25T15:39:35.774Z,1.08
2023-04-25T15:42:04.121Z,1.50
2023-04-25T15:44:33.522Z,1.65
2023-04-25T15:47:01.966Z,2.38
2023-04-25T15:49:31.234Z,1.83
2023-04-25T15:51:59.471Z,1.63
2023-04-25T15:54:27.875Z,1.70
2023-04-25T15:56:55.942Z,1.92
2023-04-25T15:59:24.073Z,2.38
2023-04-25T16:01:53.917Z,2.05
2023-04-25T16:04:22.505Z,2.08
2023-04-25T16:06:50.847Z,1.85
2023-04-25T16:09:19.229Z,1.70
2023-04-25T16:11:47.472Z,2.10
2023-04-25T16:14:15.831Z,1.85
2023-04-25T16:16:44.868Z,2.28
2023-04-25T16:19:14.242Z,1.92
2023-04-25T16:21:42.514Z,2.10
2023-04-25T16:24:10.914Z,1.88
2023-04-25T16:26:40.671Z,1.92
2023-04-25T16:29:09.116Z,1.88
2023-04-25T16:31:37.677Z,2.17
2023-04-25T16:34:06.186Z,2.08
2023-04-25T16:36:35.769Z,2.17
2023-04-25T16:39:03.982Z,1.60
2023-04-25T16:41:32.253Z,2.30
2023-04-25T16:44:00.370Z,1.75
2023-04-25T16:46:28.676Z,1.65
2023-04-25T16:48:56.929Z,2.05
2023-04-25T16:51:25.015Z,1.65
2023-04-25T16:53:54.530Z,1.63
2023-04-25T16:56:23.017Z,1.55
2023-04-25T16:58:51.514Z,1.63
2023-04-25T17:01:21.328Z,1.60
2023-04-25T17:03:50.273Z,2.35
2023-04-25T17:06:18.626Z,1.40
2023-04-25T17:08:46.775Z,1.33
2023-04-25T17:11:16.325Z,1.42
2023-04-25T17:13:45.118Z,2.17
2023-04-25T17:16:16.624Z,1.63
2023-04-25T17:18:45.411Z,1.85
2023-04-25T17:21:13.594Z,1.95
2023-04-25T17:23:45.638Z,1.98
2023-04-25T17:26:13.978Z,1.95
2023-04-25T17:28:49.348Z,1.83
2023-04-25T17:31:18.249Z,2.00
2023-04-25T17:33:46.611Z,1.75
2023-04-25T17:36:15.069Z,2.05
2023-04-25T17:38:43.300Z,1.92
2023-04-25T17:41:13.234Z,1.88
2023-04-25T17:43:41.480Z,2.10
2023-04-25T17:46:11.032Z,2.00
2023-04-25T17:48:39.148Z,1.92
2023-04-25T17:51:07.844Z,2.00
2023-04-25T17:53:36.727Z,2.10
2023-04-25T17:56:06.919Z,1.90
2023-04-25T17:58:41.378Z,1.98
2023-04-25T18:01:10.809Z,1.95
2023-04-25T18:03:40.496Z,1.50
2023-04-25T18:06:09.168Z,1.58
2023-04-25T18:08:37.338Z,2.10
2023-04-25T18:11:06.693Z,1.80
2023-04-25T18:13:34.898Z,1.92
2023-04-25T18:16:04.665Z,1.65
2023-04-25T18:18:36.385Z,1.77
2023-04-25T18:21:07.862Z,1.80
2023-04-25T18:23:37.887Z,1.70
2023-04-25T18:26:06.573Z,1.92
2023-04-25T18:28:35.019Z,1.95
2023-04-25T18:31:04.094Z,1.85
2023-04-25T18:33:33.863Z,2.13
2023-04-25T18:36:01.990Z,1.38
2023-04-25T18:41:18.256Z,1.75
2023-04-25T18:43:49.957Z,1.70
2023-04-25T18:46:22.325Z,1.75
2023-04-25T18:48:53.508Z,2.13
2023-04-25T18:51:22.851Z,1.60
2023-04-25T18:53:52.094Z,1.55
2023-04-25T18:56:22.708Z,1.60
2023-04-25T18:58:51.625Z,1.00
2023-04-25T19:01:20.591Z,1.45
2023-04-25T19:03:55.882Z,1.08
2023-04-25T19:06:28.026Z,1.42
2023-04-25T19:08:57.637Z,1.50
2023-04-25T19:11:26.209Z,1.20
2023-04-25T19:13:56.728Z,1.40
2023-04-25T19:16:26.588Z,1.00
2023-04-25T19:18:56.426Z,1.20
2023-04-25T19:21:26.870Z,1.92
2023-04-25T19:23:56.607Z,1.38
2023-04-25T19:26:25.228Z,1.67
2023-04-25T19:29:06.085Z,1.70
2023-04-25T19:31:35.125Z,1.88
2023-04-25T19:34:04.616Z,0.90
2023-04-25T19:36:34.449Z,1.10
2023-04-25T19:39:04.445Z,1.02
2023-04-25T19:41:35.222Z,1.13
2023-04-25T19:44:06.120Z,0.98
2023-04-25T19:46:35.339Z,1.17
2023-04-25T19:49:06.584Z,0.98
2023-04-25T19:51:37.270Z,1.42
2023-04-25T19:54:05.853Z,1.05
2023-04-25T19:56:34.229Z,1.52
2023-04-25T19:59:02.338Z,0.98
2023-04-25T20:01:30.689Z,1.70
2023-04-25T20:03:58.969Z,0.65
2023-04-25T20:06:27.435Z,0.80
2023-04-25T20:08:57.113Z,1.42
2023-04-25T20:11:28.616Z,0.93
2023-04-25T20:13:57.524Z,0.60
2023-04-25T20:16:26.067Z,1.00
2023-04-25T20:18:55.510Z,0.98
2023-04-25T20:21:24.135Z,1.00
2023-04-25T20:23:52.217Z,1.38
2023-04-25T20:26:22.866Z,1.02
2023-04-25T20:28:51.977Z,1.05
2023-04-25T20:31:20.969Z,0.77
2023-04-25T20:33:49.198Z,0.77
2023-04-25T20:36:17.277Z,0.85
2023-04-25T20:38:45.656Z,0.93
2023-04-25T20:41:13.889Z,0.90
2023-04-25T20:43:43.334Z,0.63
2023-04-25T20:46:12.441Z,0.82
2023-04-25T20:48:40.734Z,0.60
2023-04-25T20:51:09.038Z,0.52
2023-04-25T20:53:37.191Z,0.70
2023-04-25T20:56:06.455Z,0.77
2023-04-25T20:58:34.686Z,0.70
2023-04-25T21:01:04.409Z,0.95
2023-04-25T21:03:32.793Z,0.57
2023-04-25T21:06:01.660Z,1.35
2023-04-25T21:08:29.828Z,1.10
2023-04-25T21:10:57.913Z,1.00
2023-04-25T21:13:27.293Z,0.88
2023-04-25T21:15:55.487Z,1.23
2023-04-25T21:18:24.968Z,1.08
2023-04-25T21:20:53.514Z,1.50
2023-04-25T21:23:21.886Z,1.02
2023-04-25T21:25:51.644Z,1.17
2023-04-25T21:28:19.854Z,1.20
2023-04-25T21:30:48.203Z,1.02
2023-04-25T21:33:16.384Z,1.40
2023-04-25T21:35:46.092Z,1.00
2023-04-25T21:38:15.640Z,0.98
2023-04-25T21:40:44.996Z,0.85
2023-04-25T21:43:13.320Z,1.27
2023-04-25T21:45:59.471Z,1.10
2023-04-25T21:48:29.512Z,0.55
2023-04-25T21:50:58.987Z,0.98
2023-04-25T21:53:27.526Z,0.90
2023-04-25T21:55:55.584Z,1.33
2023-04-25T21:58:23.894Z,1.15
2023-04-25T22:00:51.966Z,1.45
2023-04-25T22:03:20.563Z,0.93
2023-04-25T22:05:49.125Z,0.93
2023-04-25T22:08:18.550Z,1.10
2023-04-25T22:10:46.692Z,0.90
2023-04-25T22:13:15.301Z,1.17
2023-04-25T22:15:43.476Z,1.30
2023-04-25T22:18:13.349Z,1.30
2023-04-25T22:20:41.522Z,1.02
2023-04-25T22:23:09.720Z,1.13
2023-04-25T22:25:39.148Z,1.65
2023-04-25T22:28:07.229Z,1.40
2023-04-25T22:30:37.192Z,1.58
2023-04-25T22:33:05.386Z,1.08
2023-04-25T22:35:33.458Z,1.35
2023-04-25T22:38:01.664Z,0.80
2023-04-25T22:40:29.775Z,1.30
2023-04-25T22:42:59.564Z,1.50
2023-04-25T22:45:27.828Z,0.85
2023-04-25T22:47:56.237Z,1.02
2023-04-25T22:50:24.415Z,1.10
2023-04-25T22:52:52.656Z,1.00
2023-04-25T22:55:22.316Z,1.25
2023-04-25T22:57:50.695Z,1.27
2023-04-25T23:00:21.770Z,1.60
2023-04-25T23:02:50.702Z,1.27
2023-04-25T23:05:19.911Z,1.27
2023-04-25T23:07:48.457Z,1.50
2023-04-25T23:10:16.767Z,1.60
2023-04-25T23:12:44.900Z,1.40
2023-04-25T23:15:13.616Z,1.20
2023-04-25T23:17:43.564Z,1.35
2023-04-25T23:20:12.417Z,1.52
2023-04-25T23:22:40.846Z,1.23
2023-04-25T23:25:10.364Z,1.17
2023-04-25T23:27:38.567Z,0.90
2023-04-25T23:30:07.412Z,1.10
2023-04-25T23:32:35.655Z,1.38
2023-04-25T23:35:05.884Z,1.40
2023-04-25T23:37:34.747Z,1.00
2023-04-25T23:40:06.671Z,1.27
2023-04-25T23:42:35.128Z,1.55
2023-04-25T23:45:05.052Z,0.70
2023-04-25T23:47:33.458Z,1.17
2023-04-25T23:50:01.992Z,1.23
2023-04-25T23:52:31.564Z,0.98
2023-04-25T23:54:59.692Z,1.25
2023-04-25T23:57:27.807Z,1.10
2023-04-25T23:59:56.524Z,1.15
